sensor_id;sensor_type;location;lat;lon;timestamp;temperature;humidity
48978;DHT22;34793;48.940;2.618;2022-10-26T00:01:01;22.50;83.30
48978;DHT22;34793;48.940;2.618;2022-10-26T00:03:27;22.50;83.20
48978;DHT22;34793;48.940;2.618;2022-10-26T00:05:52;22.50;83.80
48978;DHT22;34793;48.940;2.618;2022-10-26T00:08:18;22.50;84.30
48978;DHT22;34793;48.940;2.618;2022-10-26T00:10:43;22.50;84.40
48978;DHT22;34793;48.940;2.618;2022-10-26T00:13:09;22.50;84.60
48978;DHT22;34793;48.940;2.618;2022-10-26T00:15:38;22.40;85.00
48978;DHT22;34793;48.940;2.618;2022-10-26T00:18:03;22.40;85.10
48978;DHT22;34793;48.940;2.618;2022-10-26T00:20:30;22.30;85.00
48978;DHT22;34793;48.940;2.618;2022-10-26T00:22:56;22.20;85.00
48978;DHT22;34793;48.940;2.618;2022-10-26T00:25:21;22.20;85.10
48978;DHT22;34793;48.940;2.618;2022-10-26T00:27:47;22.20;85.30
48978;DHT22;34793;48.940;2.618;2022-10-26T00:30:12;22.10;85.40
48978;DHT22;34793;48.940;2.618;2022-10-26T00:32:38;22.10;85.60
48978;DHT22;34793;48.940;2.618;2022-10-26T00:35:03;22.00;85.80
48978;DHT22;34793;48.940;2.618;2022-10-26T00:37:29;22.10;85.50
48978;DHT22;34793;48.940;2.618;2022-10-26T00:39:54;21.90;85.50
48978;DHT22;34793;48.940;2.618;2022-10-26T00:42:21;22.00;85.50
48978;DHT22;34793;48.940;2.618;2022-10-26T00:47:13;22.10;85.40
48978;DHT22;34793;48.940;2.618;2022-10-26T00:49:39;22.10;85.00
48978;DHT22;34793;48.940;2.618;2022-10-26T00:52:05;22.10;84.50
48978;DHT22;34793;48.940;2.618;2022-10-26T00:54:31;22.10;84.90
48978;DHT22;34793;48.940;2.618;2022-10-26T00:56:57;22.00;85.40
48978;DHT22;34793;48.940;2.618;2022-10-26T00:59:22;22.00;85.40
48978;DHT22;34793;48.940;2.618;2022-10-26T01:01:48;22.00;85.60
48978;DHT22;34793;48.940;2.618;2022-10-26T01:04:14;22.00;85.20
48978;DHT22;34793;48.940;2.618;2022-10-26T01:06:40;22.00;85.60
48978;DHT22;34793;48.940;2.618;2022-10-26T01:09:06;21.90;85.90
48978;DHT22;34793;48.940;2.618;2022-10-26T01:11:31;21.90;86.00
48978;DHT22;34793;48.940;2.618;2022-10-26T01:13:57;21.70;86.60
48978;DHT22;34793;48.940;2.618;2022-10-26T01:32:31;21.60;87.10
48978;DHT22;34793;48.940;2.618;2022-10-26T01:35:05;21.50;86.90
48978;DHT22;34793;48.940;2.618;2022-10-26T01:37:34;21.60;87.00
48978;DHT22;34793;48.940;2.618;2022-10-26T01:42:56;21.70;86.80
48978;DHT22;34793;48.940;2.618;2022-10-26T01:45:23;21.60;86.50
48978;DHT22;34793;48.940;2.618;2022-10-26T01:47:49;21.70;86.40
48978;DHT22;34793;48.940;2.618;2022-10-26T01:50:16;21.80;85.80
48978;DHT22;34793;48.940;2.618;2022-10-26T01:52:43;21.60;86.60
48978;DHT22;34793;48.940;2.618;2022-10-26T01:57:53;21.80;86.40
48978;DHT22;34793;48.940;2.618;2022-10-26T02:00:23;21.70;86.50
48978;DHT22;34793;48.940;2.618;2022-10-26T02:15:43;21.30;88.20
48978;DHT22;34793;48.940;2.618;2022-10-26T02:18:23;21.30;88.40
48978;DHT22;34793;48.940;2.618;2022-10-26T02:20:50;21.20;88.50
48978;DHT22;34793;48.940;2.618;2022-10-26T02:23:17;21.20;88.70
48978;DHT22;34793;48.940;2.618;2022-10-26T02:25:46;21.30;88.20
48978;DHT22;34793;48.940;2.618;2022-10-26T02:28:14;21.20;88.80
48978;DHT22;34793;48.940;2.618;2022-10-26T02:30:41;21.10;88.40
48978;DHT22;34793;48.940;2.618;2022-10-26T02:33:07;21.30;88.40
48978;DHT22;34793;48.940;2.618;2022-10-26T02:35:35;21.40;88.40
48978;DHT22;34793;48.940;2.618;2022-10-26T02:38:03;21.40;88.10
48978;DHT22;34793;48.940;2.618;2022-10-26T02:40:30;21.50;87.80
48978;DHT22;34793;48.940;2.618;2022-10-26T02:42:57;21.40;88.20
48978;DHT22;34793;48.940;2.618;2022-10-26T02:45:25;21.40;88.30
48978;DHT22;34793;48.940;2.618;2022-10-26T02:47:52;21.40;88.30
48978;DHT22;34793;48.940;2.618;2022-10-26T02:50:18;21.20;88.60
48978;DHT22;34793;48.940;2.618;2022-10-26T02:52:50;21.20;89.20
48978;DHT22;34793;48.940;2.618;2022-10-26T02:55:24;21.10;89.20
48978;DHT22;34793;48.940;2.618;2022-10-26T02:57:56;21.30;89.20
48978;DHT22;34793;48.940;2.618;2022-10-26T03:00:23;21.40;89.10
48978;DHT22;34793;48.940;2.618;2022-10-26T03:02:52;21.30;89.40
48978;DHT22;34793;48.940;2.618;2022-10-26T03:05:19;21.20;89.30
48978;DHT22;34793;48.940;2.618;2022-10-26T03:07:45;21.20;89.60
48978;DHT22;34793;48.940;2.618;2022-10-26T03:10:11;21.30;89.30
48978;DHT22;34793;48.940;2.618;2022-10-26T03:12:36;21.50;88.70
48978;DHT22;34793;48.940;2.618;2022-10-26T03:15:02;21.50;88.50
48978;DHT22;34793;48.940;2.618;2022-10-26T03:17:28;21.70;87.90
48978;DHT22;34793;48.940;2.618;2022-10-26T03:19:53;21.60;88.20
48978;DHT22;34793;48.940;2.618;2022-10-26T03:22:20;21.70;88.10
48978;DHT22;34793;48.940;2.618;2022-10-26T03:24:46;21.80;87.70
48978;DHT22;34793;48.940;2.618;2022-10-26T03:27:11;21.90;87.10
48978;DHT22;34793;48.940;2.618;2022-10-26T03:29:37;21.80;87.10
48978;DHT22;34793;48.940;2.618;2022-10-26T03:32:02;21.90;86.90
48978;DHT22;34793;48.940;2.618;2022-10-26T03:34:28;22.00;86.20
48978;DHT22;34793;48.940;2.618;2022-10-26T03:36:53;22.10;86.20
48978;DHT22;34793;48.940;2.618;2022-10-26T03:39:19;22.20;86.30
48978;DHT22;34793;48.940;2.618;2022-10-26T03:41:44;22.20;86.10
48978;DHT22;34793;48.940;2.618;2022-10-26T03:44:10;22.10;85.90
48978;DHT22;34793;48.940;2.618;2022-10-26T03:46:35;22.20;85.90
48978;DHT22;34793;48.940;2.618;2022-10-26T03:49:01;22.10;86.20
48978;DHT22;34793;48.940;2.618;2022-10-26T03:51:26;21.90;86.50
48978;DHT22;34793;48.940;2.618;2022-10-26T03:53:52;22.00;86.50
48978;DHT22;34793;48.940;2.618;2022-10-26T03:56:17;22.10;86.00
48978;DHT22;34793;48.940;2.618;2022-10-26T03:58:43;22.00;86.20
48978;DHT22;34793;48.940;2.618;2022-10-26T04:01:08;22.00;86.10
48978;DHT22;34793;48.940;2.618;2022-10-26T04:03:34;21.90;86.00
48978;DHT22;34793;48.940;2.618;2022-10-26T04:06:00;21.90;86.20
48978;DHT22;34793;48.940;2.618;2022-10-26T04:08:25;21.80;86.20
48978;DHT22;34793;48.940;2.618;2022-10-26T04:10:51;21.70;86.70
48978;DHT22;34793;48.940;2.618;2022-10-26T04:13:16;21.80;86.60
48978;DHT22;34793;48.940;2.618;2022-10-26T04:15:42;21.70;86.80
48978;DHT22;34793;48.940;2.618;2022-10-26T04:18:07;21.60;87.00
48978;DHT22;34793;48.940;2.618;2022-10-26T04:20:33;21.60;87.50
48978;DHT22;34793;48.940;2.618;2022-10-26T04:23:04;21.50;87.30
48978;DHT22;34793;48.940;2.618;2022-10-26T04:25:30;21.30;87.80
48978;DHT22;34793;48.940;2.618;2022-10-26T04:27:56;21.30;87.90
48978;DHT22;34793;48.940;2.618;2022-10-26T04:30:22;21.30;88.70
48978;DHT22;34793;48.940;2.618;2022-10-26T04:32:47;21.40;88.10
48978;DHT22;34793;48.940;2.618;2022-10-26T04:35:13;21.40;87.30
48978;DHT22;34793;48.940;2.618;2022-10-26T04:37:38;21.40;87.40
48978;DHT22;34793;48.940;2.618;2022-10-26T04:40:04;21.40;87.10
48978;DHT22;34793;48.940;2.618;2022-10-26T04:42:30;21.40;87.00
48978;DHT22;34793;48.940;2.618;2022-10-26T04:44:58;21.30;87.70
48978;DHT22;34793;48.940;2.618;2022-10-26T04:47:24;21.30;87.10
48978;DHT22;34793;48.940;2.618;2022-10-26T04:49:49;21.00;88.20
48978;DHT22;34793;48.940;2.618;2022-10-26T04:52:15;21.10;88.30
48978;DHT22;34793;48.940;2.618;2022-10-26T04:54:40;21.10;87.90
48978;DHT22;34793;48.940;2.618;2022-10-26T04:57:05;21.30;87.90
48978;DHT22;34793;48.940;2.618;2022-10-26T04:59:31;21.20;87.50
48978;DHT22;34793;48.940;2.618;2022-10-26T05:01:57;21.20;87.80
48978;DHT22;34793;48.940;2.618;2022-10-26T05:04:22;21.20;88.10
48978;DHT22;34793;48.940;2.618;2022-10-26T05:06:47;21.10;88.40
48978;DHT22;34793;48.940;2.618;2022-10-26T05:09:13;21.10;87.60
48978;DHT22;34793;48.940;2.618;2022-10-26T05:11:38;21.20;88.40
48978;DHT22;34793;48.940;2.618;2022-10-26T05:14:04;21.10;88.10
48978;DHT22;34793;48.940;2.618;2022-10-26T05:16:29;21.10;87.80
48978;DHT22;34793;48.940;2.618;2022-10-26T05:18:55;21.10;88.60
48978;DHT22;34793;48.940;2.618;2022-10-26T05:21:20;21.20;87.80
48978;DHT22;34793;48.940;2.618;2022-10-26T05:23:49;21.10;88.30
48978;DHT22;34793;48.940;2.618;2022-10-26T05:26:16;21.00;88.50
48978;DHT22;34793;48.940;2.618;2022-10-26T05:28:42;21.00;89.00
48978;DHT22;34793;48.940;2.618;2022-10-26T05:31:07;21.00;88.70
48978;DHT22;34793;48.940;2.618;2022-10-26T05:33:33;21.10;88.60
48978;DHT22;34793;48.940;2.618;2022-10-26T05:35:58;21.00;88.40
48978;DHT22;34793;48.940;2.618;2022-10-26T05:38:24;20.90;88.20
48978;DHT22;34793;48.940;2.618;2022-10-26T05:40:50;21.00;87.90
48978;DHT22;34793;48.940;2.618;2022-10-26T05:43:16;21.10;87.50
48978;DHT22;34793;48.940;2.618;2022-10-26T05:45:42;21.10;86.80
48978;DHT22;34793;48.940;2.618;2022-10-26T05:48:07;21.30;86.70
48978;DHT22;34793;48.940;2.618;2022-10-26T05:50:33;21.20;86.70
48978;DHT22;34793;48.940;2.618;2022-10-26T05:52:58;21.30;86.10
48978;DHT22;34793;48.940;2.618;2022-10-26T05:55:24;21.30;86.00
48978;DHT22;34793;48.940;2.618;2022-10-26T05:57:50;21.30;86.30
48978;DHT22;34793;48.940;2.618;2022-10-26T06:05:27;21.30;86.30
48978;DHT22;34793;48.940;2.618;2022-10-26T06:07:52;21.30;86.30
48978;DHT22;34793;48.940;2.618;2022-10-26T06:10:18;21.30;86.30
48978;DHT22;34793;48.940;2.618;2022-10-26T06:12:44;21.30;86.50
48978;DHT22;34793;48.940;2.618;2022-10-26T06:15:28;21.30;87.00
48978;DHT22;34793;48.940;2.618;2022-10-26T06:20:31;21.00;87.10
48978;DHT22;34793;48.940;2.618;2022-10-26T06:25:55;20.80;87.90
48978;DHT22;34793;48.940;2.618;2022-10-26T06:28:42;20.80;87.90
48978;DHT22;34793;48.940;2.618;2022-10-26T06:31:12;20.90;87.30
48978;DHT22;34793;48.940;2.618;2022-10-26T06:33:37;20.90;87.30
48978;DHT22;34793;48.940;2.618;2022-10-26T06:36:10;21.00;86.80
48978;DHT22;34793;48.940;2.618;2022-10-26T06:38:40;20.90;87.40
48978;DHT22;34793;48.940;2.618;2022-10-26T06:41:09;20.80;87.30
48978;DHT22;34793;48.940;2.618;2022-10-26T06:43:35;20.90;87.10
48978;DHT22;34793;48.940;2.618;2022-10-26T06:46:25;20.90;86.80
48978;DHT22;34793;48.940;2.618;2022-10-26T06:51:12;21.00;87.20
48978;DHT22;34793;48.940;2.618;2022-10-26T06:53:43;20.90;86.80
48978;DHT22;34793;48.940;2.618;2022-10-26T06:56:09;20.90;86.90
48978;DHT22;34793;48.940;2.618;2022-10-26T06:58:35;20.90;86.90
48978;DHT22;34793;48.940;2.618;2022-10-26T07:01:02;20.80;87.10
48978;DHT22;34793;48.940;2.618;2022-10-26T07:03:27;20.70;88.10
48978;DHT22;34793;48.940;2.618;2022-10-26T07:05:53;20.80;87.90
48978;DHT22;34793;48.940;2.618;2022-10-26T07:08:18;21.30;88.60
48978;DHT22;34793;48.940;2.618;2022-10-26T07:10:45;20.70;87.80
48978;DHT22;34793;48.940;2.618;2022-10-26T07:13:10;20.60;88.20
48978;DHT22;34793;48.940;2.618;2022-10-26T07:15:36;20.70;88.70
48978;DHT22;34793;48.940;2.618;2022-10-26T07:18:02;20.70;88.90
48978;DHT22;34793;48.940;2.618;2022-10-26T07:20:30;20.70;89.30
48978;DHT22;34793;48.940;2.618;2022-10-26T07:22:56;20.60;89.10
48978;DHT22;34793;48.940;2.618;2022-10-26T07:25:23;20.60;89.10
48978;DHT22;34793;48.940;2.618;2022-10-26T07:27:49;20.60;88.90
48978;DHT22;34793;48.940;2.618;2022-10-26T07:30:14;20.80;89.00
48978;DHT22;34793;48.940;2.618;2022-10-26T07:32:40;20.80;89.00
48978;DHT22;34793;48.940;2.618;2022-10-26T07:35:05;20.80;88.90
48978;DHT22;34793;48.940;2.618;2022-10-26T07:37:31;20.70;89.60
48978;DHT22;34793;48.940;2.618;2022-10-26T07:39:56;20.50;90.00
48978;DHT22;34793;48.940;2.618;2022-10-26T07:42:22;20.40;90.40
48978;DHT22;34793;48.940;2.618;2022-10-26T07:44:47;20.40;90.50
48978;DHT22;34793;48.940;2.618;2022-10-26T07:47:13;20.50;90.50
48978;DHT22;34793;48.940;2.618;2022-10-26T07:49:38;20.50;90.30
48978;DHT22;34793;48.940;2.618;2022-10-26T07:52:03;20.50;90.40
48978;DHT22;34793;48.940;2.618;2022-10-26T07:54:29;20.40;90.70
48978;DHT22;34793;48.940;2.618;2022-10-26T07:56:55;20.30;90.80
48978;DHT22;34793;48.940;2.618;2022-10-26T07:59:21;20.50;90.80
48978;DHT22;34793;48.940;2.618;2022-10-26T08:01:46;20.50;90.70
48978;DHT22;34793;48.940;2.618;2022-10-26T08:04:11;20.60;90.50
48978;DHT22;34793;48.940;2.618;2022-10-26T08:06:37;20.60;90.50
48978;DHT22;34793;48.940;2.618;2022-10-26T08:09:07;20.60;90.50
48978;DHT22;34793;48.940;2.618;2022-10-26T08:11:33;20.70;90.60
48978;DHT22;34793;48.940;2.618;2022-10-26T08:14:01;20.70;90.50
48978;DHT22;34793;48.940;2.618;2022-10-26T08:16:26;20.80;90.50
48978;DHT22;34793;48.940;2.618;2022-10-26T08:18:52;20.70;90.60
48978;DHT22;34793;48.940;2.618;2022-10-26T08:21:17;20.90;90.50
48978;DHT22;34793;48.940;2.618;2022-10-26T08:23:43;20.70;90.70
48978;DHT22;34793;48.940;2.618;2022-10-26T08:26:09;20.70;90.80
48978;DHT22;34793;48.940;2.618;2022-10-26T08:28:37;20.70;90.80
48978;DHT22;34793;48.940;2.618;2022-10-26T08:31:03;20.80;90.90
48978;DHT22;34793;48.940;2.618;2022-10-26T08:33:29;20.80;90.90
48978;DHT22;34793;48.940;2.618;2022-10-26T08:35:58;20.80;90.90
48978;DHT22;34793;48.940;2.618;2022-10-26T08:38:24;21.00;90.70
48978;DHT22;34793;48.940;2.618;2022-10-26T08:40:49;21.00;90.70
48978;DHT22;34793;48.940;2.618;2022-10-26T08:45:49;21.10;90.40
48978;DHT22;34793;48.940;2.618;2022-10-26T08:48:17;21.20;90.40
48978;DHT22;34793;48.940;2.618;2022-10-26T08:50:45;21.20;90.70
48978;DHT22;34793;48.940;2.618;2022-10-26T08:53:15;21.10;90.80
48978;DHT22;34793;48.940;2.618;2022-10-26T08:55:45;21.20;90.50
48978;DHT22;34793;48.940;2.618;2022-10-26T08:58:14;21.30;90.60
48978;DHT22;34793;48.940;2.618;2022-10-26T09:00:40;21.40;90.70
48978;DHT22;34793;48.940;2.618;2022-10-26T09:03:12;21.40;90.50
48978;DHT22;34793;48.940;2.618;2022-10-26T09:05:42;21.50;90.40
48978;DHT22;34793;48.940;2.618;2022-10-26T09:08:12;21.60;90.20
48978;DHT22;34793;48.940;2.618;2022-10-26T09:15:48;21.60;90.10
48978;DHT22;34793;48.940;2.618;2022-10-26T09:26:23;22.00;88.70
48978;DHT22;34793;48.940;2.618;2022-10-26T09:28:51;21.80;89.70
48978;DHT22;34793;48.940;2.618;2022-10-26T09:31:17;21.80;90.00
48978;DHT22;34793;48.940;2.618;2022-10-26T09:33:43;21.80;89.30
48978;DHT22;34793;48.940;2.618;2022-10-26T09:36:10;21.60;90.00
48978;DHT22;34793;48.940;2.618;2022-10-26T09:43:54;21.70;90.40
48978;DHT22;34793;48.940;2.618;2022-10-26T09:46:33;22.00;89.70
48978;DHT22;34793;48.940;2.618;2022-10-26T09:49:00;22.20;89.20
48978;DHT22;34793;48.940;2.618;2022-10-26T09:51:28;22.30;88.60
48978;DHT22;34793;48.940;2.618;2022-10-26T09:53:55;22.50;87.80
48978;DHT22;34793;48.940;2.618;2022-10-26T09:56:21;22.80;87.40
48978;DHT22;34793;48.940;2.618;2022-10-26T10:04:02;23.70;84.80
48978;DHT22;34793;48.940;2.618;2022-10-26T10:06:32;24.20;83.80
48978;DHT22;34793;48.940;2.618;2022-10-26T10:11:36;24.60;82.10
48978;DHT22;34793;48.940;2.618;2022-10-26T10:14:04;24.80;81.10
48978;DHT22;34793;48.940;2.618;2022-10-26T10:16:30;24.90;82.10
48978;DHT22;34793;48.940;2.618;2022-10-26T10:18:56;24.90;80.40
48978;DHT22;34793;48.940;2.618;2022-10-26T10:21:39;25.20;79.00
48978;DHT22;34793;48.940;2.618;2022-10-26T10:27:02;25.50;78.50
48978;DHT22;34793;48.940;2.618;2022-10-26T10:29:32;25.70;79.30
48978;DHT22;34793;48.940;2.618;2022-10-26T10:31:58;26.00;78.20
48978;DHT22;34793;48.940;2.618;2022-10-26T10:34:24;26.30;77.60
48978;DHT22;34793;48.940;2.618;2022-10-26T10:36:50;26.70;78.40
48978;DHT22;34793;48.940;2.618;2022-10-26T10:39:49;26.90;77.00
48978;DHT22;34793;48.940;2.618;2022-10-26T10:42:15;27.10;78.70
48978;DHT22;34793;48.940;2.618;2022-10-26T10:44:41;27.40;75.80
48978;DHT22;34793;48.940;2.618;2022-10-26T10:47:13;27.70;74.40
48978;DHT22;34793;48.940;2.618;2022-10-26T10:49:40;27.90;76.50
48978;DHT22;34793;48.940;2.618;2022-10-26T10:52:11;28.10;74.00
48978;DHT22;34793;48.940;2.618;2022-10-26T10:54:46;28.10;72.50
48978;DHT22;34793;48.940;2.618;2022-10-26T11:07:21;28.60;73.70
48978;DHT22;34793;48.940;2.618;2022-10-26T11:09:48;28.90;74.30
48978;DHT22;34793;48.940;2.618;2022-10-26T11:12:16;29.10;70.90
48978;DHT22;34793;48.940;2.618;2022-10-26T11:14:44;28.70;71.20
48978;DHT22;34793;48.940;2.618;2022-10-26T11:17:29;28.90;71.30
48978;DHT22;34793;48.940;2.618;2022-10-26T11:19:56;29.10;71.00
48978;DHT22;34793;48.940;2.618;2022-10-26T11:22:24;28.80;71.30
48978;DHT22;34793;48.940;2.618;2022-10-26T11:24:57;28.90;71.70
48978;DHT22;34793;48.940;2.618;2022-10-26T11:27:25;28.80;69.60
48978;DHT22;34793;48.940;2.618;2022-10-26T11:30:06;28.70;73.20
48978;DHT22;34793;48.940;2.618;2022-10-26T11:32:41;29.10;74.10
48978;DHT22;34793;48.940;2.618;2022-10-26T11:37:35;29.60;71.30
48978;DHT22;34793;48.940;2.618;2022-10-26T11:45:24;29.60;69.90
48978;DHT22;34793;48.940;2.618;2022-10-26T11:47:56;29.40;70.60
48978;DHT22;34793;48.940;2.618;2022-10-26T11:50:24;29.40;69.70
48978;DHT22;34793;48.940;2.618;2022-10-26T11:52:52;29.60;69.30
48978;DHT22;34793;48.940;2.618;2022-10-26T11:55:19;29.50;70.30
48978;DHT22;34793;48.940;2.618;2022-10-26T11:57:44;29.60;70.60
48978;DHT22;34793;48.940;2.618;2022-10-26T12:00:17;29.60;69.90
48978;DHT22;34793;48.940;2.618;2022-10-26T12:02:48;29.30;69.70
48978;DHT22;34793;48.940;2.618;2022-10-26T12:07:42;29.40;70.60
48978;DHT22;34793;48.940;2.618;2022-10-26T12:10:18;29.30;71.20
48978;DHT22;34793;48.940;2.618;2022-10-26T12:12:49;29.10;69.20
48978;DHT22;34793;48.940;2.618;2022-10-26T12:15:24;28.90;70.30
48978;DHT22;34793;48.940;2.618;2022-10-26T12:18:33;28.80;71.00
48978;DHT22;34793;48.940;2.618;2022-10-26T12:23:11;28.90;71.40
48978;DHT22;34793;48.940;2.618;2022-10-26T12:25:37;29.00;70.00
48978;DHT22;34793;48.940;2.618;2022-10-26T12:28:03;28.80;70.50
48978;DHT22;34793;48.940;2.618;2022-10-26T12:30:33;28.80;71.20
48978;DHT22;34793;48.940;2.618;2022-10-26T12:33:02;28.60;71.10
48978;DHT22;34793;48.940;2.618;2022-10-26T12:35:47;28.80;70.50
48978;DHT22;34793;48.940;2.618;2022-10-26T12:48:43;28.30;70.80
48978;DHT22;34793;48.940;2.618;2022-10-26T12:53:48;28.30;70.40
48978;DHT22;34793;48.940;2.618;2022-10-26T12:56:15;28.20;71.00
48978;DHT22;34793;48.940;2.618;2022-10-26T13:04:03;27.90;71.20
48978;DHT22;34793;48.940;2.618;2022-10-26T13:09:19;28.20;71.60
48978;DHT22;34793;48.940;2.618;2022-10-26T13:11:46;28.00;71.00
48978;DHT22;34793;48.940;2.618;2022-10-26T13:16:57;27.70;71.50
48978;DHT22;34793;48.940;2.618;2022-10-26T13:19:24;27.60;72.00
48978;DHT22;34793;48.940;2.618;2022-10-26T13:21:49;27.60;72.10
48978;DHT22;34793;48.940;2.618;2022-10-26T13:24:15;27.60;72.10
48978;DHT22;34793;48.940;2.618;2022-10-26T13:29:28;27.30;71.40
48978;DHT22;34793;48.940;2.618;2022-10-26T13:31:54;27.60;71.20
48978;DHT22;34793;48.940;2.618;2022-10-26T13:34:21;27.50;71.30
48978;DHT22;34793;48.940;2.618;2022-10-26T13:39:21;27.80;73.00
48978;DHT22;34793;48.940;2.618;2022-10-26T13:41:48;27.80;72.30
48978;DHT22;34793;48.940;2.618;2022-10-26T13:44:22;27.90;71.70
48978;DHT22;34793;48.940;2.618;2022-10-26T13:46:50;27.70;71.90
48978;DHT22;34793;48.940;2.618;2022-10-26T13:49:38;27.80;72.10
48978;DHT22;34793;48.940;2.618;2022-10-26T13:52:05;27.80;72.00
48978;DHT22;34793;48.940;2.618;2022-10-26T13:54:38;27.80;72.00
48978;DHT22;34793;48.940;2.618;2022-10-26T13:59:36;27.80;71.70
48978;DHT22;34793;48.940;2.618;2022-10-26T14:02:07;27.80;72.10
48978;DHT22;34793;48.940;2.618;2022-10-26T14:04:33;27.80;72.30
48978;DHT22;34793;48.940;2.618;2022-10-26T14:06:58;27.60;71.10
48978;DHT22;34793;48.940;2.618;2022-10-26T14:09:24;27.20;71.70
48978;DHT22;34793;48.940;2.618;2022-10-26T14:11:51;27.10;72.40
48978;DHT22;34793;48.940;2.618;2022-10-26T14:14:21;26.90;72.80
48978;DHT22;34793;48.940;2.618;2022-10-26T14:16:48;27.00;73.30
48978;DHT22;34793;48.940;2.618;2022-10-26T14:19:23;27.00;72.00
48978;DHT22;34793;48.940;2.618;2022-10-26T14:21:50;26.80;72.00
48978;DHT22;34793;48.940;2.618;2022-10-26T14:24:23;26.80;72.40
48978;DHT22;34793;48.940;2.618;2022-10-26T14:26:51;26.80;72.30
48978;DHT22;34793;48.940;2.618;2022-10-26T14:29:17;26.60;73.50
48978;DHT22;34793;48.940;2.618;2022-10-26T14:31:43;26.80;72.40
48978;DHT22;34793;48.940;2.618;2022-10-26T14:34:10;26.90;71.70
48978;DHT22;34793;48.940;2.618;2022-10-26T14:36:36;27.00;71.90
48978;DHT22;34793;48.940;2.618;2022-10-26T14:39:04;27.00;72.00
48978;DHT22;34793;48.940;2.618;2022-10-26T14:41:31;26.90;72.10
48978;DHT22;34793;48.940;2.618;2022-10-26T14:43:58;26.80;72.40
48978;DHT22;34793;48.940;2.618;2022-10-26T14:46:24;26.80;72.70
48978;DHT22;34793;48.940;2.618;2022-10-26T14:48:52;26.80;72.70
48978;DHT22;34793;48.940;2.618;2022-10-26T14:51:19;26.70;72.90
48978;DHT22;34793;48.940;2.618;2022-10-26T14:53:48;27.00;72.70
48978;DHT22;34793;48.940;2.618;2022-10-26T14:58:50;27.10;72.50
48978;DHT22;34793;48.940;2.618;2022-10-26T15:03:48;26.80;73.10
48978;DHT22;34793;48.940;2.618;2022-10-26T15:08:53;26.80;72.80
48978;DHT22;34793;48.940;2.618;2022-10-26T15:11:19;26.70;72.80
48978;DHT22;34793;48.940;2.618;2022-10-26T15:13:44;26.80;72.10
48978;DHT22;34793;48.940;2.618;2022-10-26T15:16:20;26.90;72.50
48978;DHT22;34793;48.940;2.618;2022-10-26T15:18:47;26.90;72.80
48978;DHT22;34793;48.940;2.618;2022-10-26T15:21:20;26.80;72.80
48978;DHT22;34793;48.940;2.618;2022-10-26T15:23:46;26.70;72.90
48978;DHT22;34793;48.940;2.618;2022-10-26T15:26:12;26.60;72.80
48978;DHT22;34793;48.940;2.618;2022-10-26T15:28:38;26.80;72.30
48978;DHT22;34793;48.940;2.618;2022-10-26T15:31:06;26.60;72.90
48978;DHT22;34793;48.940;2.618;2022-10-26T15:33:32;26.70;73.00
48978;DHT22;34793;48.940;2.618;2022-10-26T15:36:15;26.80;72.20
48978;DHT22;34793;48.940;2.618;2022-10-26T15:38:41;26.70;72.10
48978;DHT22;34793;48.940;2.618;2022-10-26T15:41:15;26.80;72.30
48978;DHT22;34793;48.940;2.618;2022-10-26T15:43:42;27.00;72.40
48978;DHT22;34793;48.940;2.618;2022-10-26T15:46:07;26.80;72.20
48978;DHT22;34793;48.940;2.618;2022-10-26T15:48:33;27.00;72.30
48978;DHT22;34793;48.940;2.618;2022-10-26T15:51:00;27.00;72.00
48978;DHT22;34793;48.940;2.618;2022-10-26T15:53:26;27.00;72.30
48978;DHT22;34793;48.940;2.618;2022-10-26T15:55:52;27.00;72.00
48978;DHT22;34793;48.940;2.618;2022-10-26T15:58:18;27.00;71.40
48978;DHT22;34793;48.940;2.618;2022-10-26T16:00:44;27.00;72.40
48978;DHT22;34793;48.940;2.618;2022-10-26T16:03:13;27.00;71.90
48978;DHT22;34793;48.940;2.618;2022-10-26T16:05:40;27.00;72.20
48978;DHT22;34793;48.940;2.618;2022-10-26T16:08:07;27.00;72.30
48978;DHT22;34793;48.940;2.618;2022-10-26T16:10:34;27.00;72.40
48978;DHT22;34793;48.940;2.618;2022-10-26T16:12:59;27.00;72.20
48978;DHT22;34793;48.940;2.618;2022-10-26T16:15:25;26.90;72.20
48978;DHT22;34793;48.940;2.618;2022-10-26T16:17:50;26.80;71.80
48978;DHT22;34793;48.940;2.618;2022-10-26T16:20:17;26.80;72.80
48978;DHT22;34793;48.940;2.618;2022-10-26T16:22:43;26.70;72.50
48978;DHT22;34793;48.940;2.618;2022-10-26T16:25:13;26.60;72.70
48978;DHT22;34793;48.940;2.618;2022-10-26T16:27:38;26.60;72.90
48978;DHT22;34793;48.940;2.618;2022-10-26T16:30:04;26.60;73.20
48978;DHT22;34793;48.940;2.618;2022-10-26T16:32:30;26.50;73.20
48978;DHT22;34793;48.940;2.618;2022-10-26T16:34:55;26.50;73.50
48978;DHT22;34793;48.940;2.618;2022-10-26T16:37:21;26.40;73.40
48978;DHT22;34793;48.940;2.618;2022-10-26T16:39:46;26.40;73.50
48978;DHT22;34793;48.940;2.618;2022-10-26T16:42:12;26.30;73.60
48978;DHT22;34793;48.940;2.618;2022-10-26T16:44:37;26.30;74.10
48978;DHT22;34793;48.940;2.618;2022-10-26T16:47:03;26.20;73.90
48978;DHT22;34793;48.940;2.618;2022-10-26T16:49:28;26.20;74.00
48978;DHT22;34793;48.940;2.618;2022-10-26T16:51:54;26.10;74.00
48978;DHT22;34793;48.940;2.618;2022-10-26T16:54:21;26.00;74.50
48978;DHT22;34793;48.940;2.618;2022-10-26T16:56:47;26.00;74.10
48978;DHT22;34793;48.940;2.618;2022-10-26T16:59:13;26.00;73.90
48978;DHT22;34793;48.940;2.618;2022-10-26T17:01:39;26.00;73.90
48978;DHT22;34793;48.940;2.618;2022-10-26T17:04:04;25.90;74.30
48978;DHT22;34793;48.940;2.618;2022-10-26T17:06:30;25.80;74.60
48978;DHT22;34793;48.940;2.618;2022-10-26T17:08:55;25.70;75.10
48978;DHT22;34793;48.940;2.618;2022-10-26T17:11:21;25.60;75.30
48978;DHT22;34793;48.940;2.618;2022-10-26T17:13:47;25.50;75.30
48978;DHT22;34793;48.940;2.618;2022-10-26T17:16:14;25.50;75.60
48978;DHT22;34793;48.940;2.618;2022-10-26T17:18:40;25.40;75.60
48978;DHT22;34793;48.940;2.618;2022-10-26T17:21:07;25.40;75.80
48978;DHT22;34793;48.940;2.618;2022-10-26T17:23:32;25.30;75.80
48978;DHT22;34793;48.940;2.618;2022-10-26T17:26:01;25.30;76.00
48978;DHT22;34793;48.940;2.618;2022-10-26T17:28:27;25.20;76.10
48978;DHT22;34793;48.940;2.618;2022-10-26T17:31:00;25.10;76.20
48978;DHT22;34793;48.940;2.618;2022-10-26T17:33:25;25.10;76.20
48978;DHT22;34793;48.940;2.618;2022-10-26T17:35:51;25.10;76.50
48978;DHT22;34793;48.940;2.618;2022-10-26T17:38:17;25.00;76.40
48978;DHT22;34793;48.940;2.618;2022-10-26T17:40:42;24.90;76.90
48978;DHT22;34793;48.940;2.618;2022-10-26T17:43:08;24.80;77.10
48978;DHT22;34793;48.940;2.618;2022-10-26T17:45:33;24.70;77.10
48978;DHT22;34793;48.940;2.618;2022-10-26T17:47:59;24.70;77.20
48978;DHT22;34793;48.940;2.618;2022-10-26T17:50:24;24.70;77.30
48978;DHT22;34793;48.940;2.618;2022-10-26T17:52:50;24.60;77.30
48978;DHT22;34793;48.940;2.618;2022-10-26T17:55:15;24.60;77.30